Keene, CA

12:22 PM PDT on July 28, 2015 (GMT -0700)
Deer Creek, Hart Flat, CA, US | | Change Station
CLOSE
Current Station
Personal Weather Station
Location: Keene, CA
Elevation: 2854 ft
Nearby Weather Stations

Elev 2854 ft 35.25 °N, 118.61 °W | Updated 1 minute ago

Clear
Clear
86.7 °F
Feels Like 83 °F
N
4.0
Wind Variable Wind from NW
Gusts 9.0 mph

Today
High -- | Low -- °F
--% Chance of Precip.
Yesterday
High -- | Low -- °F
Precip. -- in
6:00 AM 8:01 PM
Waxing Gibbous, 91% visible
Pressure 30.06 in
Visibility 10.0 miles
Clouds Clear
Heat Index 83 °F
Dew Point 42 °F
Humidity 21%
Rainfall 0.00 in
Snow Depth Not available.
UV 7.0 out of 12
Pollen 4.60 out of 12
Air Quality Not available.
Flu Activity Not available.
METAR KTSP 281915Z AUTO 13014G20KT 10SM CLR 30/00 A3006 RMK AO2

More Conditions Fewer Conditions

Pressure 30.06 in
Visibility 10.0 miles
Clouds Clear
Heat Index 83 °F
Dew Point 42 °F
Humidity 21%
Rainfall 0.00 in
Snow Depth Not available.
UV 7.0 out of 12
Pollen 4.60 out of 12
Air Quality Not available.
Flu Activity Not available.
METAR KTSP 281915Z AUTO 13014G20KT 10SM CLR 30/00 A3006 RMK AO2

More Conditions Fewer Conditions

A strong ridge of high pressure will aid in providing some of the warmest temperatures of the Summer thus far along the West Coast, while dangerously high heat index values up to 110 degrees will be possible from southern Iowa through northern Louisiana. Residents are urged to take precaution while working outside.

10-Day Weather Forecast

×

Almanac

Astronomy

Jul. 28, 2015 Rise Set
Actual Time
Civil Twilight
Nautical Twilight
Astronomical Twilight
Moon
Length of Visible Light
Length of Day
Tomorrow will be .
, % of the Moon is Illuminated

Today's Extremes

State Highs State Lows

Community

WunderPhotos

Upload Photos

1,841,924 photos uploaded!

WunderBlogs® & News

Nearby

Air Quality

  Air Quality AQ Index Pollutant
Not available.

Snow Depth

Station Depth Elevation

Earthquake Activity

City Distance Mag. Time & Date
Minimum magnitude displayed is 2.5.

Coastal Water Temperatures

Place Temperature

Stations

Nearby Weather Stations

Station Location Temp. Windchill Dew Point Humidity Wind Precip. Elev Updated Type